createdAt,value
2018-04-11T00:00:39.816Z,13.87
2018-04-11T00:01:39.802Z,13.79
2018-04-11T00:02:39.777Z,13.85
2018-04-11T00:03:39.814Z,13.81
2018-04-11T00:04:39.734Z,13.83
2018-04-11T00:05:39.465Z,13.85
2018-04-11T00:06:39.443Z,13.81
2018-04-11T00:07:39.667Z,13.81
2018-04-11T00:08:39.397Z,13.79
2018-04-11T00:09:39.630Z,13.89
2018-04-11T00:10:39.463Z,13.89
2018-04-11T00:11:39.588Z,13.89
2018-04-11T00:12:39.568Z,13.89
2018-04-11T00:13:39.295Z,13.85
2018-04-11T00:14:39.528Z,13.9
2018-04-11T00:15:39.503Z,13.92
2018-04-11T00:16:39.482Z,13.87
2018-04-11T00:17:39.463Z,13.86
2018-04-11T00:18:39.437Z,13.81
2018-04-11T00:19:39.424Z,13.81
2018-04-11T00:20:39.149Z,13.81
2018-04-11T00:21:39.379Z,13.81
2018-04-11T00:22:39.362Z,13.72
2018-04-11T00:23:39.345Z,13.78
2018-04-11T00:24:39.319Z,13.81
2018-04-11T00:25:39.295Z,13.71
2018-04-11T00:26:39.025Z,13.75
2018-04-11T00:27:39.251Z,13.74
2018-04-11T00:28:39.233Z,13.74
2018-04-11T00:29:39.214Z,13.87
2018-04-11T00:30:39.189Z,13.79
2018-04-11T00:31:38.919Z,13.83
2018-04-11T00:32:39.144Z,13.79
2018-04-11T00:33:39.123Z,13.62
2018-04-11T00:34:39.101Z,13.7
2018-04-11T00:35:39.079Z,13.67
2018-04-11T00:36:39.062Z,13.6
2018-04-11T00:37:38.791Z,13.65
2018-04-11T00:38:38.767Z,13.63
2018-04-11T00:39:38.994Z,13.63
2018-04-11T00:40:38.975Z,13.54
2018-04-11T00:41:38.951Z,13.54
2018-04-11T00:42:38.934Z,13.57
2018-04-11T00:43:38.660Z,13.6
2018-04-11T00:44:38.887Z,13.56
2018-04-11T00:45:38.870Z,13.56
2018-04-11T00:46:38.845Z,13.6
2018-04-11T00:47:38.826Z,13.6
2018-04-11T00:48:38.805Z,13.62
2018-04-11T00:49:38.780Z,13.59
2018-04-11T00:50:38.515Z,13.65
2018-04-11T00:51:38.245Z,13.67
2018-04-11T00:52:38.718Z,13.62
2018-04-11T00:53:38.695Z,13.59
2018-04-11T00:54:38.424Z,13.59
2018-04-11T00:55:38.405Z,13.62
2018-04-11T00:56:38.740Z,13.62
2018-04-11T00:57:38.612Z,13.6
2018-04-11T00:58:38.374Z,13.6
2018-04-11T00:59:38.570Z,13.59
2018-04-11T01:00:38.549Z,13.62
2018-04-11T01:01:38.526Z,13.62
2018-04-11T01:02:38.507Z,13.63
2018-04-11T01:03:38.483Z,13.57
2018-04-11T01:04:38.214Z,13.6
2018-04-11T01:05:38.443Z,13.52
2018-04-11T01:06:38.171Z,13.56
2018-04-11T01:07:38.395Z,13.54
2018-04-11T01:08:38.374Z,13.52
2018-04-11T01:09:38.357Z,13.47
2018-04-11T01:10:38.336Z,13.52
2018-04-11T01:11:38.064Z,13.52
2018-04-11T01:12:38.286Z,13.53
2018-04-11T01:13:38.274Z,13.5
2018-04-11T01:14:38.247Z,13.49
2018-04-11T01:15:37.977Z,13.5
2018-04-11T01:16:38.206Z,13.53
2018-04-11T01:17:38.736Z,13.52
2018-04-11T01:18:38.162Z,13.54
2018-04-11T01:19:38.141Z,13.53
2018-04-11T01:20:38.121Z,13.52
2018-04-11T01:21:38.102Z,13.5
2018-04-11T01:22:38.078Z,13.46
2018-04-11T01:23:38.060Z,13.49
2018-04-11T01:24:38.037Z,13.5
2018-04-11T01:25:38.016Z,13.41
2018-04-11T01:26:37.999Z,13.47
2018-04-11T01:27:37.972Z,13.44
2018-04-11T01:28:37.954Z,13.38
2018-04-11T01:29:37.935Z,13.41
2018-04-11T01:30:37.910Z,13.46
2018-04-11T01:31:37.888Z,13.52
2018-04-11T01:32:37.622Z,13.54
2018-04-11T01:33:37.883Z,13.47
2018-04-11T01:34:37.822Z,13.47
2018-04-11T01:35:37.803Z,13.46
2018-04-11T01:36:37.790Z,13.49
2018-04-11T01:37:37.515Z,13.49
2018-04-11T01:38:37.495Z,13.46
2018-04-11T01:39:37.717Z,13.5
2018-04-11T01:40:37.693Z,13.53
2018-04-11T01:41:37.688Z,13.47
2018-04-11T01:42:37.658Z,13.52
2018-04-11T01:43:37.639Z,13.44
2018-04-11T01:44:37.607Z,13.52
2018-04-11T01:45:37.590Z,13.5
2018-04-11T01:46:37.574Z,13.5
2018-04-11T01:47:37.546Z,13.49
2018-04-11T01:48:37.529Z,13.53
2018-04-11T01:49:37.502Z,13.57
2018-04-11T01:50:37.484Z,13.5
2018-04-11T01:51:37.459Z,13.53
2018-04-11T01:52:37.439Z,13.5
2018-04-11T01:53:37.419Z,13.56
2018-04-11T01:54:37.403Z,13.52
2018-04-11T01:55:37.371Z,13.5
2018-04-11T01:56:37.108Z,13.52
2018-04-11T01:57:37.088Z,13.47
2018-04-11T01:58:37.316Z,13.53
2018-04-11T01:59:37.046Z,13.56
2018-04-11T02:00:37.421Z,13.68
2018-04-11T02:01:37.253Z,13.63
2018-04-11T02:02:37.233Z,13.57
2018-04-11T02:03:37.207Z,13.47
2018-04-11T02:04:37.191Z,13.57
2018-04-11T02:05:36.915Z,13.52
2018-04-11T02:06:36.899Z,13.44
2018-04-11T02:07:37.123Z,13.52
2018-04-11T02:08:37.104Z,13.52
2018-04-11T02:09:36.906Z,13.53
2018-04-11T02:10:37.062Z,13.47
2018-04-11T02:11:37.037Z,13.42
2018-04-11T02:12:37.017Z,13.46
2018-04-11T02:13:36.994Z,13.46
2018-04-11T02:14:36.728Z,13.46
2018-04-11T02:15:36.702Z,13.47
2018-04-11T02:16:36.928Z,13.49
2018-04-11T02:17:36.915Z,13.49
2018-04-11T02:18:36.886Z,13.49
2018-04-11T02:19:36.866Z,13.52
2018-04-11T02:20:36.594Z,13.41
2018-04-11T02:21:36.827Z,13.44
2018-04-11T02:22:36.853Z,13.35
2018-04-11T02:23:36.535Z,13.35
2018-04-11T02:24:36.761Z,13.44
2018-04-11T02:25:36.737Z,13.37
2018-04-11T02:26:36.469Z,13.37
2018-04-11T02:27:36.716Z,13.33
2018-04-11T02:28:36.679Z,13.3
2018-04-11T02:29:36.408Z,13.31
2018-04-11T02:30:36.381Z,13.23
2018-04-11T02:31:36.606Z,13.25
2018-04-11T02:32:36.601Z,13.27
2018-04-11T02:33:36.571Z,13.23
2018-04-11T02:34:36.541Z,13.25
2018-04-11T02:35:36.525Z,13.23
2018-04-11T02:36:36.507Z,13.15
2018-04-11T02:37:36.496Z,13.12
2018-04-11T02:38:36.461Z,13.05
2018-04-11T02:39:36.442Z,13.11
2018-04-11T02:40:36.417Z,13.08
2018-04-11T02:41:36.397Z,13.05
2018-04-11T02:42:36.377Z,13.01
2018-04-11T02:43:36.422Z,13.05
2018-04-11T02:44:36.091Z,13.01
2018-04-11T02:45:36.065Z,13.05
2018-04-11T02:46:36.289Z,13.05
2018-04-11T02:47:36.272Z,12.97
2018-04-11T02:48:36.261Z,13
2018-04-11T02:49:35.976Z,12.97
2018-04-11T02:50:36.210Z,12.95
2018-04-11T02:51:36.182Z,12.95
2018-04-11T02:52:36.157Z,12.97
2018-04-11T02:53:35.884Z,13.04
2018-04-11T02:54:36.118Z,12.98
2018-04-11T02:55:36.092Z,12.98
2018-04-11T02:56:36.074Z,13
2018-04-11T02:57:36.046Z,12.97
2018-04-11T02:58:36.029Z,12.94
2018-04-11T02:59:36.012Z,12.91
2018-04-11T03:00:35.987Z,12.94
2018-04-11T03:01:36.004Z,12.87
2018-04-11T03:02:35.693Z,12.83
2018-04-11T03:03:36.019Z,12.93
2018-04-11T03:04:35.891Z,12.83
2018-04-11T03:05:35.630Z,12.9
2018-04-11T03:06:36.142Z,12.8
2018-04-11T03:07:35.827Z,12.86
2018-04-11T03:08:35.807Z,12.8
2018-04-11T03:09:35.543Z,12.82
2018-04-11T03:10:35.286Z,12.85
2018-04-11T03:11:35.754Z,12.85
2018-04-11T03:12:35.723Z,12.85
2018-04-11T03:13:35.696Z,12.9
2018-04-11T03:14:35.677Z,12.85
2018-04-11T03:15:35.689Z,12.85
2018-04-11T03:16:35.641Z,12.8
2018-04-11T03:17:35.613Z,12.82
2018-04-11T03:18:35.090Z,12.82
2018-04-11T03:19:35.569Z,12.83
2018-04-11T03:20:35.543Z,12.76
2018-04-11T03:21:35.529Z,12.83
2018-04-11T03:22:35.499Z,12.78
2018-04-11T03:23:35.486Z,12.79
2018-04-11T03:24:35.209Z,12.8
2018-04-11T03:25:35.446Z,12.75
2018-04-11T03:26:35.163Z,12.79
2018-04-11T03:27:35.393Z,12.82
2018-04-11T03:28:35.365Z,12.8
2018-04-11T03:29:35.343Z,12.82
2018-04-11T03:30:35.333Z,12.78
2018-04-11T03:31:35.059Z,12.76
2018-04-11T03:32:35.289Z,12.78
2018-04-11T03:33:35.366Z,12.8
2018-04-11T03:34:35.246Z,12.8
2018-04-11T03:35:35.216Z,12.83
2018-04-11T03:36:35.193Z,12.72
2018-04-11T03:37:35.167Z,12.79
2018-04-11T03:38:35.149Z,12.72
2018-04-11T03:39:34.879Z,12.79
2018-04-11T03:40:35.100Z,12.7
2018-04-11T03:41:35.088Z,12.73
2018-04-11T03:42:35.057Z,12.76
2018-04-11T03:43:35.045Z,12.76
2018-04-11T03:44:35.025Z,12.68
2018-04-11T03:45:34.747Z,12.73
2018-04-11T03:46:34.726Z,12.62
2018-04-11T03:47:34.950Z,12.62
2018-04-11T03:48:34.680Z,12.61
2018-04-11T03:49:34.921Z,12.6
2018-04-11T03:50:34.891Z,12.55
2018-04-11T03:51:34.866Z,12.53
2018-04-11T03:52:34.842Z,12.6
2018-04-11T03:53:34.820Z,12.47
2018-04-11T03:54:34.548Z,12.49
2018-04-11T03:55:34.524Z,12.5
2018-04-11T03:56:34.757Z,12.46
2018-04-11T03:57:34.728Z,12.55
2018-04-11T03:58:34.707Z,12.47
2018-04-11T03:59:34.683Z,12.49
2018-04-11T04:00:34.418Z,12.53
2018-04-11T04:01:34.399Z,12.5
2018-04-11T04:02:34.622Z,12.46
2018-04-11T04:03:34.601Z,12.54
2018-04-11T04:04:34.571Z,12.49
2018-04-11T04:05:34.549Z,12.47
2018-04-11T04:06:34.534Z,12.47
2018-04-11T04:07:34.541Z,12.53
2018-04-11T04:08:34.483Z,12.39
2018-04-11T04:09:34.521Z,12.5
2018-04-11T04:10:34.446Z,12.53
2018-04-11T04:11:34.428Z,12.55
2018-04-11T04:12:34.396Z,12.53
2018-04-11T04:13:34.127Z,12.45
2018-04-11T04:14:34.624Z,12.5
2018-04-11T04:15:34.669Z,12.54
2018-04-11T04:16:34.303Z,12.49
2018-04-11T04:17:34.285Z,12.55
2018-04-11T04:18:34.263Z,12.57
2018-04-11T04:19:34.249Z,12.57
2018-04-11T04:20:34.220Z,12.57
2018-04-11T04:21:33.946Z,12.62
2018-04-11T04:22:34.171Z,12.67
2018-04-11T04:23:33.903Z,12.68
2018-04-11T04:24:34.134Z,12.61
2018-04-11T04:25:34.111Z,12.64
2018-04-11T04:26:34.089Z,12.65
2018-04-11T04:27:33.812Z,12.76
2018-04-11T04:28:34.043Z,12.75
2018-04-11T04:29:34.171Z,12.78
2018-04-11T04:30:34.000Z,12.78
2018-04-11T04:31:33.971Z,12.83
2018-04-11T04:32:33.705Z,12.76
2018-04-11T04:33:33.682Z,12.78
2018-04-11T04:34:33.906Z,12.78
2018-04-11T04:35:33.638Z,12.86
2018-04-11T04:36:33.617Z,12.78
2018-04-11T04:37:33.842Z,12.78
2018-04-11T04:38:33.821Z,12.86
2018-04-11T04:39:33.802Z,12.8
2018-04-11T04:40:33.798Z,12.78
2018-04-11T04:41:33.761Z,12.82
2018-04-11T04:42:33.740Z,12.83
2018-04-11T04:43:33.805Z,12.86
2018-04-11T04:44:33.793Z,12.86
2018-04-11T04:45:33.672Z,12.85
2018-04-11T04:46:33.661Z,12.85
2018-04-11T04:47:33.628Z,12.79
2018-04-11T04:48:33.603Z,12.87
2018-04-11T04:49:33.581Z,12.8
2018-04-11T04:50:33.574Z,12.8
2018-04-11T04:51:33.576Z,12.8
2018-04-11T04:52:33.509Z,12.82
2018-04-11T04:53:33.498Z,12.85
2018-04-11T04:54:33.473Z,12.79
2018-04-11T04:55:33.201Z,12.83
2018-04-11T04:56:33.430Z,12.83
2018-04-11T04:57:33.419Z,12.82
2018-04-11T04:58:33.383Z,12.82
2018-04-11T04:59:33.364Z,12.78
2018-04-11T05:00:33.348Z,12.76
2018-04-11T05:01:33.364Z,12.73
2018-04-11T05:02:33.302Z,12.75
2018-04-11T05:03:33.029Z,12.79
2018-04-11T05:04:33.001Z,12.75
2018-04-11T05:05:33.234Z,12.78
2018-04-11T05:06:33.212Z,12.75
2018-04-11T05:07:33.192Z,12.82
2018-04-11T05:08:32.919Z,12.79
2018-04-11T05:09:33.146Z,12.79
2018-04-11T05:10:33.127Z,12.82
2018-04-11T05:11:33.104Z,12.85
2018-04-11T05:12:33.078Z,12.79
2018-04-11T05:13:32.814Z,12.82
2018-04-11T05:14:33.040Z,12.76
2018-04-11T05:15:33.015Z,12.78
2018-04-11T05:16:33.005Z,12.82
2018-04-11T05:17:32.975Z,12.78
2018-04-11T05:18:32.702Z,12.79
2018-04-11T05:19:32.928Z,12.8
2018-04-11T05:20:32.903Z,12.83
2018-04-11T05:21:32.888Z,12.85
2018-04-11T05:22:32.612Z,12.79
2018-04-11T05:23:32.842Z,12.83
2018-04-11T05:24:32.824Z,12.83
2018-04-11T05:25:32.795Z,12.86
2018-04-11T05:26:32.529Z,12.8
2018-04-11T05:27:32.752Z,12.8
2018-04-11T05:28:32.484Z,12.9
2018-04-11T05:29:32.710Z,12.86
2018-04-11T05:30:32.704Z,12.8
2018-04-11T05:31:32.671Z,12.78
2018-04-11T05:32:32.642Z,12.85
2018-04-11T05:33:32.621Z,12.85
2018-04-11T05:34:32.600Z,12.8
2018-04-11T05:35:32.584Z,12.83
2018-04-11T05:36:32.568Z,12.8
2018-04-11T05:37:32.296Z,12.83
2018-04-11T05:38:32.266Z,12.8
2018-04-11T05:39:32.493Z,12.85
2018-04-11T05:40:32.478Z,12.79
2018-04-11T05:41:32.458Z,12.83
2018-04-11T05:42:32.481Z,12.86
2018-04-11T05:43:32.406Z,13
2018-04-11T05:44:32.139Z,12.94
2018-04-11T05:45:32.118Z,13.05
2018-04-11T05:46:32.349Z,12.98
2018-04-11T05:47:31.935Z,12.98
2018-04-11T05:48:32.308Z,12.98
2018-04-11T05:49:32.040Z,13
2018-04-11T05:50:32.732Z,12.91
2018-04-11T05:51:32.232Z,12.98
2018-04-11T05:52:32.215Z,12.94
2018-04-11T05:53:32.252Z,13
2018-04-11T05:54:31.919Z,12.97
2018-04-11T05:55:32.148Z,13
2018-04-11T05:56:32.130Z,13.03
2018-04-11T05:57:32.112Z,12.98
2018-04-11T05:58:31.838Z,12.98
2018-04-11T05:59:32.062Z,13.11
2018-04-11T06:00:32.042Z,13
2018-04-11T06:01:32.022Z,13.04
2018-04-11T06:02:32.000Z,13.11
2018-04-11T06:03:31.974Z,13
2018-04-11T06:04:31.958Z,13.05
2018-04-11T06:05:31.939Z,13.09
2018-04-11T06:06:31.916Z,13
2018-04-11T06:07:31.893Z,13.03
2018-04-11T06:08:31.873Z,13.03
2018-04-11T06:09:31.606Z,13.03
2018-04-11T06:10:31.581Z,13.01
2018-04-11T06:11:31.314Z,13.05
2018-04-11T06:12:31.536Z,12.94
2018-04-11T06:13:31.518Z,13.05
2018-04-11T06:14:31.501Z,12.98
2018-04-11T06:15:31.478Z,13.03
2018-04-11T06:16:31.711Z,12.97
2018-04-11T06:17:31.693Z,12.97
2018-04-11T06:18:31.660Z,13.01
2018-04-11T06:19:31.644Z,13.01
2018-04-11T06:20:31.617Z,12.93
2018-04-11T06:21:31.592Z,12.95
2018-04-11T06:22:31.324Z,12.97
2018-04-11T06:23:31.551Z,13
2018-04-11T06:24:31.282Z,12.98
2018-04-11T06:25:31.512Z,13
2018-04-11T06:26:31.242Z,12.97
2018-04-11T06:27:30.967Z,13.03
2018-04-11T06:28:31.196Z,13.01
2018-04-11T06:29:30.924Z,13
2018-04-11T06:30:31.403Z,13.01
2018-04-11T06:31:31.380Z,13.03
2018-04-11T06:32:31.365Z,13.04
2018-04-11T06:33:31.340Z,13.09
2018-04-11T06:34:31.072Z,13.08
2018-04-11T06:35:31.050Z,13.22
2018-04-11T06:36:31.272Z,13.19
2018-04-11T06:37:31.249Z,13.19
2018-04-11T06:38:30.984Z,13.2
2018-04-11T06:39:31.219Z,13.19
2018-04-11T06:40:31.192Z,13.33
2018-04-11T06:41:30.924Z,13.3
2018-04-11T06:42:31.149Z,13.3
2018-04-11T06:43:31.124Z,13.25
2018-04-11T06:44:30.873Z,13.28
2018-04-11T06:45:31.099Z,13.3
2018-04-11T06:46:31.060Z,13.3
2018-04-11T06:47:31.149Z,13.37
2018-04-11T06:48:30.772Z,13.37
2018-04-11T06:49:30.508Z,13.47
2018-04-11T06:50:30.985Z,13.35
2018-04-11T06:51:31.061Z,13.37
2018-04-11T06:52:30.951Z,13.39
2018-04-11T06:53:30.680Z,13.39
2018-04-11T06:54:30.902Z,13.38
2018-04-11T06:55:30.915Z,13.37
2018-04-11T06:56:30.863Z,13.39
2018-04-11T06:57:30.836Z,13.46
2018-04-11T06:58:30.819Z,13.39
2018-04-11T06:59:30.794Z,13.44
2018-04-11T07:00:30.779Z,13.56
2018-04-11T07:01:30.759Z,13.52
2018-04-11T07:02:30.739Z,13.49
2018-04-11T07:03:30.716Z,13.44
2018-04-11T07:04:30.692Z,13.49
2018-04-11T07:05:30.178Z,13.52
2018-04-11T07:06:30.655Z,13.47
2018-04-11T07:07:30.629Z,13.46
2018-04-11T07:08:30.616Z,13.53
2018-04-11T07:09:30.595Z,13.49
2018-04-11T07:10:30.334Z,13.5
2018-04-11T07:11:30.297Z,13.6
2018-04-11T07:12:30.388Z,13.59
2018-04-11T07:13:30.514Z,13.65
2018-04-11T07:14:30.489Z,13.75
2018-04-11T07:15:30.467Z,13.85
2018-04-11T07:16:30.444Z,13.89
2018-04-11T07:17:30.426Z,13.95
2018-04-11T07:18:30.161Z,13.97
2018-04-11T07:19:30.399Z,14.08
2018-04-11T07:20:30.118Z,14.1
2018-04-11T07:21:30.353Z,14.18
2018-04-11T07:22:30.619Z,14.22
2018-04-11T07:23:30.309Z,14.22
2018-04-11T07:24:30.300Z,14.23
2018-04-11T07:25:30.365Z,14.25
2018-04-11T07:26:30.249Z,14.33
2018-04-11T07:27:30.235Z,14.4
2018-04-11T07:28:30.206Z,14.33
2018-04-11T07:29:29.948Z,14.4
2018-04-11T07:30:30.171Z,14.37
2018-04-11T07:31:29.902Z,14.5
2018-04-11T07:32:30.145Z,14.51
2018-04-11T07:33:29.868Z,14.55
2018-04-11T07:34:29.857Z,14.62
2018-04-11T07:35:30.079Z,14.59
2018-04-11T07:36:30.056Z,14.63
2018-04-11T07:37:30.037Z,14.6
2018-04-11T07:38:30.027Z,14.66
2018-04-11T07:39:30.008Z,14.73
2018-04-11T07:40:30.127Z,14.78
2018-04-11T07:41:29.965Z,14.77
2018-04-11T07:42:29.954Z,14.7
2018-04-11T07:43:29.918Z,14.77
2018-04-11T07:44:30.428Z,14.62
2018-04-11T07:45:30.586Z,14.68
2018-04-11T07:46:29.869Z,14.6
2018-04-11T07:47:29.848Z,14.59
2018-04-11T07:48:29.838Z,14.47
2018-04-11T07:49:29.809Z,14.47
2018-04-11T07:50:29.551Z,14.4
2018-04-11T07:51:29.532Z,14.37
2018-04-11T07:52:29.757Z,14.33
2018-04-11T07:53:29.736Z,14.33
2018-04-11T07:54:29.555Z,14.37
2018-04-11T07:55:29.698Z,14.36
2018-04-11T07:56:29.679Z,14.29
2018-04-11T07:57:29.754Z,14.25
2018-04-11T07:58:29.653Z,14.23
2018-04-11T07:59:29.168Z,14.22
2018-04-11T08:00:29.354Z,14.15
2018-04-11T08:01:29.584Z,14.14
2018-04-11T08:02:29.705Z,14.11
2018-04-11T08:03:29.811Z,14.15
2018-04-11T08:04:29.535Z,14.17
2018-04-11T08:05:29.507Z,14.12
2018-04-11T08:06:29.482Z,14.08
2018-04-11T08:07:29.574Z,14.14
2018-04-11T08:08:28.949Z,14.1
2018-04-11T08:09:28.929Z,14.15
2018-04-11T08:10:29.157Z,14.14
2018-04-11T08:11:29.137Z,14.14
2018-04-11T08:12:29.368Z,14.12
2018-04-11T08:13:31.009Z,14.17
2018-04-11T08:14:30.390Z,14.26
2018-04-11T08:15:29.438Z,14.22
2018-04-11T08:16:29.045Z,14.36
2018-04-11T08:17:29.281Z,14.37
2018-04-11T08:18:29.252Z,14.37
2018-04-11T08:19:29.012Z,14.45
2018-04-11T08:20:29.218Z,14.5
2018-04-11T08:21:29.196Z,14.6
2018-04-11T08:22:29.175Z,14.72
2018-04-11T08:23:28.910Z,14.73
2018-04-11T08:24:29.144Z,14.82
2018-04-11T08:25:29.121Z,14.85
2018-04-11T08:26:29.106Z,14.94
2018-04-11T08:27:28.837Z,14.89
2018-04-11T08:28:29.069Z,14.92
2018-04-11T08:29:28.807Z,14.94
2018-04-11T08:30:28.537Z,15.04
2018-04-11T08:31:29.054Z,15.02
2018-04-11T08:32:29.008Z,15
2018-04-11T08:33:28.742Z,15.06
2018-04-11T08:34:31.107Z,15.06
2018-04-11T08:35:28.700Z,15.03
2018-04-11T08:36:28.944Z,14.94
2018-04-11T08:37:28.912Z,14.99
2018-04-11T08:38:28.644Z,15.1
2018-04-11T08:39:28.633Z,15.04
2018-04-11T08:40:28.863Z,15.15
2018-04-11T08:41:28.848Z,15.22
2018-04-11T08:42:28.837Z,15.28
2018-04-11T08:43:28.813Z,15.37
2018-04-11T08:44:28.551Z,15.35
2018-04-11T08:45:28.530Z,15.49
2018-04-11T08:46:28.765Z,15.59
2018-04-11T08:47:28.864Z,15.79
2018-04-11T08:48:28.729Z,15.68
2018-04-11T08:49:28.713Z,15.76
2018-04-11T08:50:28.447Z,15.67
2018-04-11T08:51:28.677Z,15.75
2018-04-11T08:52:28.715Z,15.72
2018-04-11T08:53:28.650Z,15.79
2018-04-11T08:54:28.382Z,15.75
2018-04-11T08:55:28.645Z,15.79
2018-04-11T08:56:28.355Z,15.83
2018-04-11T08:57:28.334Z,15.83
2018-04-11T08:58:28.569Z,16
2018-04-11T08:59:28.298Z,16
2018-04-11T09:00:28.540Z,16.04
2018-04-11T09:01:28.264Z,16.21
2018-04-11T09:02:28.259Z,16.32
2018-04-11T09:03:28.487Z,16.39
2018-04-11T09:04:28.219Z,16.5
2018-04-11T09:05:28.635Z,16.57
2018-04-11T09:06:28.437Z,16.6
2018-04-11T09:07:28.174Z,16.68
2018-04-11T09:08:28.407Z,16.64
2018-04-11T09:09:28.147Z,16.64
2018-04-11T09:10:28.369Z,16.66
2018-04-11T09:11:28.358Z,16.66
2018-04-11T09:12:28.345Z,16.66
2018-04-11T09:13:28.076Z,16.57
2018-04-11T09:14:27.818Z,16.49
2018-04-11T09:15:28.047Z,16.46
2018-04-11T09:16:27.786Z,16.41
2018-04-11T09:17:28.266Z,16.35
2018-04-11T09:18:28.006Z,16.39
2018-04-11T09:19:27.995Z,16.36
2018-04-11T09:20:27.720Z,16.33
2018-04-11T09:21:28.209Z,16.2
2018-04-11T09:22:27.939Z,16.23
2018-04-11T09:23:28.172Z,16.28
2018-04-11T09:24:28.156Z,16.12
2018-04-11T09:25:28.145Z,16.09
2018-04-11T09:26:27.630Z,16.08
2018-04-11T09:27:28.108Z,16.09
2018-04-11T09:28:28.094Z,16.1
2018-04-11T09:29:28.110Z,16.2
2018-04-11T09:30:28.060Z,16.17
2018-04-11T09:31:27.792Z,16.35
2018-04-11T09:32:27.532Z,16.33
2018-04-11T09:33:27.515Z,16.32
2018-04-11T09:34:27.743Z,16.43
2018-04-11T09:35:27.980Z,16.5
2018-04-11T09:36:27.719Z,16.57
2018-04-11T09:37:27.954Z,16.76
2018-04-11T09:38:27.683Z,16.83
2018-04-11T09:39:28.735Z,16.9
2018-04-11T09:40:27.913Z,17.02
2018-04-11T09:41:27.643Z,17.06
2018-04-11T09:42:27.633Z,17.04
2018-04-11T09:43:27.857Z,16.99
2018-04-11T09:44:27.841Z,16.96
2018-04-11T09:45:27.329Z,16.97
2018-04-11T09:46:27.813Z,16.87
2018-04-11T09:47:27.804Z,16.87
2018-04-11T09:48:27.783Z,16.9
2018-04-11T09:49:27.779Z,16.89
2018-04-11T09:50:27.503Z,16.74
2018-04-11T09:51:27.736Z,16.72
2018-04-11T09:52:27.477Z,16.65
2018-04-11T09:53:27.462Z,16.64
2018-04-11T09:54:27.447Z,16.57
2018-04-11T09:55:27.681Z,16.53
2018-04-11T09:56:27.165Z,16.49
2018-04-11T09:57:27.649Z,16.42
2018-04-11T09:58:27.629Z,16.5
2018-04-11T09:59:27.115Z,16.47
2018-04-11T10:00:27.759Z,16.43
2018-04-11T10:01:27.593Z,16.43
2018-04-11T10:02:27.564Z,16.39
2018-04-11T10:03:27.548Z,16.41
2018-04-11T10:04:27.553Z,16.32
2018-04-11T10:05:27.516Z,16.36
2018-04-11T10:06:27.262Z,16.38
2018-04-11T10:07:27.235Z,16.28
2018-04-11T10:08:27.467Z,16.36
2018-04-11T10:09:27.204Z,16.39
2018-04-11T10:10:27.191Z,16.39
2018-04-11T10:11:27.418Z,16.41
2018-04-11T10:12:27.464Z,16.31
2018-04-11T10:13:27.408Z,16.26
2018-04-11T10:14:27.386Z,16.21
2018-04-11T10:15:27.374Z,16.1
2018-04-11T10:16:27.934Z,16.12
2018-04-11T10:17:27.318Z,16.05
2018-04-11T10:18:27.308Z,16.13
2018-04-11T10:19:27.291Z,16
2018-04-11T10:20:27.265Z,16.02
2018-04-11T10:21:27.002Z,15.91
2018-04-11T10:22:26.981Z,15.94
2018-04-11T10:23:27.215Z,15.91
2018-04-11T10:24:27.231Z,16
2018-04-11T10:25:26.680Z,16.02
2018-04-11T10:26:26.915Z,16.08
2018-04-11T10:27:27.142Z,16.04
2018-04-11T10:28:26.629Z,16.13
2018-04-11T10:29:26.860Z,16.29
2018-04-11T10:30:26.840Z,16.35
2018-04-11T10:31:27.072Z,16.26
2018-04-11T10:32:27.064Z,16.32
2018-04-11T10:33:26.791Z,16.42
2018-04-11T10:34:27.018Z,16.49
2018-04-11T10:35:26.755Z,16.49
2018-04-11T10:36:27.007Z,16.43
2018-04-11T10:37:26.968Z,16.57
2018-04-11T10:38:26.955Z,16.64
2018-04-11T10:39:26.690Z,16.61
2018-04-11T10:40:26.920Z,16.61
2018-04-11T10:41:26.901Z,16.66
2018-04-11T10:42:26.388Z,16.74
2018-04-11T10:43:26.870Z,16.69
2018-04-11T10:44:26.602Z,16.71
2018-04-11T10:45:26.587Z,16.83
2018-04-11T10:46:26.701Z,16.84
2018-04-11T10:47:26.804Z,16.89
2018-04-11T10:48:26.791Z,16.9
2018-04-11T10:49:26.523Z,16.78
2018-04-11T10:50:26.753Z,16.94
2018-04-11T10:51:26.490Z,17.02
2018-04-11T10:52:26.723Z,16.87
2018-04-11T10:53:26.713Z,16.86
2018-04-11T10:54:26.691Z,16.76
2018-04-11T10:55:26.676Z,16.84
2018-04-11T10:56:26.409Z,16.89
2018-04-11T10:57:26.646Z,16.84
2018-04-11T10:58:26.630Z,16.79
2018-04-11T10:59:26.364Z,16.84
2018-04-11T11:00:26.345Z,16.74
2018-04-11T11:01:26.576Z,16.75
2018-04-11T11:02:26.566Z,16.68
2018-04-11T11:03:26.548Z,16.61
2018-04-11T11:04:26.537Z,16.57
2018-04-11T11:05:26.525Z,16.58
2018-04-11T11:06:26.505Z,16.53
2018-04-11T11:07:26.235Z,16.5
2018-04-11T11:08:26.462Z,16.51
2018-04-11T11:09:26.459Z,16.51
2018-04-11T11:10:26.435Z,16.53
2018-04-11T11:11:26.416Z,16.46
2018-04-11T11:12:26.409Z,16.43
2018-04-11T11:13:26.404Z,16.46
2018-04-11T11:14:26.394Z,16.51
2018-04-11T11:15:26.100Z,16.49
2018-04-11T11:16:26.131Z,16.61
2018-04-11T11:17:25.819Z,16.74
2018-04-11T11:18:25.803Z,16.81
2018-04-11T11:19:26.544Z,16.86
2018-04-11T11:20:25.772Z,16.94
2018-04-11T11:21:26.249Z,16.99
2018-04-11T11:22:26.153Z,17.08
2018-04-11T11:23:25.975Z,17.05
2018-04-11T11:24:26.213Z,17.08
2018-04-11T11:25:25.695Z,17.2
2018-04-11T11:26:26.175Z,17.29
2018-04-11T11:27:26.170Z,17.39
2018-04-11T11:28:25.655Z,17.46
2018-04-11T11:29:25.888Z,17.48
2018-04-11T11:30:25.621Z,17.57
2018-04-11T11:31:25.865Z,17.7
2018-04-11T11:32:26.105Z,17.71
2018-04-11T11:33:25.822Z,17.71
2018-04-11T11:34:25.829Z,17.83
2018-04-11T11:35:26.048Z,17.92
2018-04-11T11:36:26.045Z,17.98
2018-04-11T11:37:25.769Z,18.05
2018-04-11T11:38:26.015Z,18.07
2018-04-11T11:39:25.992Z,18.05
2018-04-11T11:40:26.026Z,18.11
2018-04-11T11:41:25.719Z,18.19
2018-04-11T11:42:25.701Z,18.23
2018-04-11T11:43:25.939Z,18.23
2018-04-11T11:44:25.684Z,18.25
2018-04-11T11:45:25.927Z,18.19
2018-04-11T11:46:25.653Z,18.22
2018-04-11T11:47:25.643Z,18.31
2018-04-11T11:48:25.876Z,18.31
2018-04-11T11:49:25.625Z,18.28
2018-04-11T11:50:25.602Z,18.16
2018-04-11T11:51:25.684Z,18.16
2018-04-11T11:52:25.856Z,18.16
2018-04-11T11:53:25.808Z,18.04
2018-04-11T11:54:25.795Z,18.07
2018-04-11T11:55:25.787Z,17.97
2018-04-11T11:56:25.272Z,18
2018-04-11T11:57:25.827Z,18.07
2018-04-11T11:58:25.247Z,18.22
2018-04-11T11:59:25.728Z,18.19
2018-04-11T12:00:25.719Z,18.15
2018-04-11T12:01:25.455Z,18.15
2018-04-11T12:02:25.698Z,18.16
2018-04-11T12:03:25.681Z,18.31
2018-04-11T12:04:25.421Z,18.35
2018-04-11T12:05:25.653Z,18.31
2018-04-11T12:06:25.387Z,18.35
2018-04-11T12:07:25.618Z,18.43
2018-04-11T12:08:25.607Z,18.45
2018-04-11T12:09:25.633Z,18.53
2018-04-11T12:10:25.334Z,18.56
2018-04-11T12:11:25.566Z,18.68
2018-04-11T12:12:25.621Z,18.68
2018-04-11T12:13:25.537Z,18.71
2018-04-11T12:14:25.524Z,18.73
2018-04-11T12:15:25.270Z,18.73
2018-04-11T12:16:25.256Z,18.77
2018-04-11T12:17:25.495Z,18.75
2018-04-11T12:18:25.230Z,18.8
2018-04-11T12:19:25.524Z,18.86
2018-04-11T12:20:25.453Z,19
2018-04-11T12:21:25.437Z,19.04
2018-04-11T12:22:25.426Z,19.11
2018-04-11T12:23:25.172Z,19.04
2018-04-11T12:24:25.156Z,18.95
2018-04-11T12:25:25.398Z,18.84
2018-04-11T12:26:25.128Z,18.73
2018-04-11T12:27:25.363Z,18.7
2018-04-11T12:28:25.127Z,18.55
2018-04-11T12:29:25.376Z,18.74
2018-04-11T12:30:25.321Z,18.66
2018-04-11T12:31:24.809Z,18.58
2018-04-11T12:32:25.450Z,18.49
2018-04-11T12:33:25.282Z,18.44
2018-04-11T12:34:24.769Z,18.43
2018-04-11T12:35:25.248Z,18.4
2018-04-11T12:36:25.238Z,18.41
2018-04-11T12:37:25.360Z,18.4
2018-04-11T12:38:25.211Z,18.34
2018-04-11T12:39:25.202Z,18.31
2018-04-11T12:40:25.183Z,18.13
2018-04-11T12:41:24.672Z,18.23
2018-04-11T12:42:25.180Z,18.28
2018-04-11T12:43:25.139Z,18.26
2018-04-11T12:44:24.628Z,18.38
2018-04-11T12:45:25.104Z,18.38
2018-04-11T12:46:24.847Z,18.34
2018-04-11T12:47:25.072Z,18.28
2018-04-11T12:48:25.063Z,18.28
2018-04-11T12:49:25.050Z,18.2
2018-04-11T12:50:25.033Z,18.25
2018-04-11T12:51:25.018Z,18.22
2018-04-11T12:52:25.008Z,18.2
2018-04-11T12:53:24.994Z,18.11
2018-04-11T12:54:24.970Z,18.2
2018-04-11T12:55:24.960Z,18.2
2018-04-11T12:56:24.693Z,18.13
2018-04-11T12:57:24.927Z,18.1